createdAt,value
2024-03-30T00:01:27.103Z,9.67
2024-03-30T00:03:55.164Z,9.69
2024-03-30T00:06:23.754Z,9.68
2024-03-30T00:08:52.027Z,9.66
2024-03-30T00:11:20.413Z,9.67
2024-03-30T00:13:48.789Z,9.66
2024-03-30T00:16:19.121Z,9.67
2024-03-30T00:18:47.486Z,9.67
2024-03-30T00:21:16.511Z,9.65
2024-03-30T00:23:48.068Z,9.64
2024-03-30T00:26:17.272Z,9.60
2024-03-30T00:28:47.638Z,9.57
2024-03-30T00:31:16.892Z,9.56
2024-03-30T00:33:46.976Z,9.53
2024-03-30T00:36:15.500Z,9.49
2024-03-30T00:38:46.858Z,9.45
2024-03-30T00:41:15.469Z,9.42
2024-03-30T00:43:45.611Z,9.42
2024-03-30T00:46:14.173Z,9.43
2024-03-30T00:48:42.419Z,9.44
2024-03-30T00:51:11.318Z,9.42
2024-03-30T00:53:40.749Z,9.34
2024-03-30T00:56:09.088Z,9.31
2024-03-30T00:58:37.366Z,9.27
2024-03-30T01:01:06.300Z,9.25
2024-03-30T01:03:34.810Z,9.20
2024-03-30T01:06:03.581Z,9.19
2024-03-30T01:08:31.776Z,9.16
2024-03-30T01:11:00.761Z,9.14
2024-03-30T01:13:31.018Z,9.12
2024-03-30T01:16:00.071Z,9.12
2024-03-30T01:18:28.818Z,9.17
2024-03-30T01:20:59.618Z,9.18
2024-03-30T01:23:30.832Z,9.15
2024-03-30T01:26:01.260Z,9.13
2024-03-30T01:28:31.229Z,9.12
2024-03-30T01:31:01.203Z,9.10
2024-03-30T01:33:30.157Z,9.07
2024-03-30T01:35:59.254Z,9.06
2024-03-30T01:38:28.234Z,9.04
2024-03-30T01:40:57.403Z,8.99
2024-03-30T01:43:27.821Z,8.95
2024-03-30T01:45:59.258Z,8.94
2024-03-30T01:48:28.800Z,8.95
2024-03-30T01:50:57.442Z,8.98
2024-03-30T01:53:36.708Z,9.01
2024-03-30T01:56:10.907Z,9.04
2024-03-30T01:58:40.099Z,9.01
2024-03-30T02:01:09.257Z,9.02
2024-03-30T02:03:38.101Z,9.04
2024-03-30T02:06:08.596Z,9.07
2024-03-30T02:08:37.636Z,9.07
2024-03-30T02:11:06.505Z,9.05
2024-03-30T02:13:36.604Z,8.98
2024-03-30T02:16:05.370Z,8.94
2024-03-30T02:18:34.339Z,8.93
2024-03-30T02:21:03.029Z,8.95
2024-03-30T02:23:32.055Z,8.95
2024-03-30T02:26:02.039Z,8.96
2024-03-30T02:28:30.963Z,8.97
2024-03-30T02:31:00.132Z,8.93
2024-03-30T02:33:28.644Z,8.90
2024-03-30T02:35:58.514Z,8.88
2024-03-30T02:38:27.209Z,8.86
2024-03-30T02:40:58.151Z,8.83
2024-03-30T02:43:26.991Z,8.78
2024-03-30T02:45:55.702Z,8.78
2024-03-30T02:48:24.451Z,8.70
2024-03-30T02:50:52.976Z,8.60
2024-03-30T02:53:21.414Z,8.56
2024-03-30T02:55:50.289Z,8.45
2024-03-30T02:58:19.298Z,8.49
2024-03-30T03:00:49.000Z,8.47
2024-03-30T03:03:17.774Z,8.42
2024-03-30T03:05:46.579Z,8.37
2024-03-30T03:08:15.878Z,8.38
2024-03-30T03:10:44.932Z,8.40
2024-03-30T03:13:13.535Z,8.40
2024-03-30T03:15:42.042Z,8.45
2024-03-30T03:18:10.985Z,8.47
2024-03-30T03:20:39.486Z,8.46
2024-03-30T03:23:08.486Z,8.45
2024-03-30T03:25:36.975Z,8.47
2024-03-30T03:28:05.703Z,8.50
2024-03-30T03:30:34.239Z,8.49
2024-03-30T03:33:02.780Z,8.53
2024-03-30T03:35:31.436Z,8.57
2024-03-30T03:37:59.937Z,8.60
2024-03-30T03:40:28.994Z,8.60
2024-03-30T03:42:57.565Z,8.58
2024-03-30T03:45:25.960Z,8.59
2024-03-30T03:47:54.702Z,8.58
2024-03-30T03:50:23.110Z,8.56
2024-03-30T03:52:51.703Z,8.54
2024-03-30T03:55:21.163Z,8.51
2024-03-30T03:57:52.225Z,8.49
2024-03-30T04:00:20.930Z,8.48
2024-03-30T04:02:49.818Z,8.49
2024-03-30T04:05:18.763Z,8.47
2024-03-30T04:07:47.680Z,8.48
2024-03-30T04:10:16.854Z,8.48
2024-03-30T04:12:45.677Z,8.49
2024-03-30T04:15:14.275Z,8.50
2024-03-30T04:17:43.229Z,8.49
2024-03-30T04:20:11.991Z,8.50
2024-03-30T04:22:40.792Z,8.52
2024-03-30T04:25:09.429Z,8.53
2024-03-30T04:27:37.638Z,8.58
2024-03-30T04:30:08.716Z,8.65
2024-03-30T04:32:37.147Z,8.71
2024-03-30T04:35:05.852Z,8.73
2024-03-30T04:37:34.358Z,8.72
2024-03-30T04:40:02.860Z,8.77
2024-03-30T04:42:31.614Z,8.82
2024-03-30T04:45:00.251Z,8.85
2024-03-30T04:47:29.146Z,8.92
2024-03-30T04:49:58.199Z,8.97
2024-03-30T04:52:27.091Z,9.02
2024-03-30T04:54:55.850Z,9.07
2024-03-30T04:57:25.586Z,9.16
2024-03-30T04:59:54.584Z,9.27
2024-03-30T05:02:23.361Z,9.38
2024-03-30T05:04:51.838Z,9.46
2024-03-30T05:07:20.323Z,9.57
2024-03-30T05:09:48.904Z,9.66
2024-03-30T05:12:17.305Z,9.77
2024-03-30T05:14:45.661Z,9.92
2024-03-30T05:17:14.345Z,10.05
2024-03-30T05:20:01.470Z,10.13
2024-03-30T05:22:30.255Z,10.19
2024-03-30T05:24:58.716Z,10.21
2024-03-30T05:27:27.187Z,10.35
2024-03-30T05:29:59.207Z,10.50
2024-03-30T05:32:27.991Z,10.66
2024-03-30T05:34:56.540Z,10.83
2024-03-30T05:37:25.762Z,11.02
2024-03-30T05:39:54.614Z,11.24
2024-03-30T05:42:23.150Z,11.44
2024-03-30T05:44:52.315Z,11.59
2024-03-30T05:47:20.549Z,11.68
2024-03-30T05:49:48.947Z,11.79
2024-03-30T05:52:17.227Z,11.86
2024-03-30T05:54:45.468Z,11.91
2024-03-30T05:57:13.949Z,12.00
2024-03-30T05:59:42.719Z,12.09
2024-03-30T06:02:11.051Z,12.25
2024-03-30T06:04:39.634Z,12.44
2024-03-30T06:07:10.063Z,12.60
2024-03-30T06:09:39.014Z,12.75
2024-03-30T06:12:07.638Z,12.91
2024-03-30T06:14:36.108Z,13.06
2024-03-30T06:17:04.713Z,13.10
2024-03-30T06:19:33.248Z,13.16
2024-03-30T06:22:01.843Z,13.37
2024-03-30T06:24:30.969Z,13.46
2024-03-30T06:26:59.593Z,13.67
2024-03-30T06:29:28.188Z,14.00
2024-03-30T06:31:56.859Z,14.34
2024-03-30T06:34:25.811Z,14.69
2024-03-30T06:36:54.557Z,15.05
2024-03-30T06:39:23.131Z,15.50
2024-03-30T06:42:09.891Z,15.93
2024-03-30T06:44:38.668Z,16.42
2024-03-30T06:47:07.212Z,16.80
2024-03-30T06:49:36.561Z,17.02
2024-03-30T06:52:05.951Z,17.25
2024-03-30T06:54:34.533Z,17.36
2024-03-30T06:57:02.869Z,17.33
2024-03-30T06:59:31.533Z,17.02
2024-03-30T07:02:03.569Z,16.69
2024-03-30T07:04:31.944Z,16.73
2024-03-30T07:07:00.618Z,16.96
2024-03-30T07:09:31.497Z,17.27
2024-03-30T07:12:00.378Z,17.39
2024-03-30T07:14:28.953Z,17.37
2024-03-30T07:17:13.983Z,17.54
2024-03-30T07:19:43.497Z,17.56
2024-03-30T07:22:11.877Z,17.60
2024-03-30T07:24:40.420Z,17.74
2024-03-30T07:27:08.954Z,17.97
2024-03-30T07:29:37.771Z,18.22
2024-03-30T07:32:06.806Z,18.45
2024-03-30T07:34:35.320Z,18.55
2024-03-30T07:37:03.950Z,18.92
2024-03-30T07:39:32.312Z,19.11
2024-03-30T07:42:00.766Z,19.22
2024-03-30T07:44:30.967Z,19.31
2024-03-30T07:46:59.736Z,19.19
2024-03-30T07:49:28.537Z,18.89
2024-03-30T07:51:57.203Z,18.73
2024-03-30T07:54:25.896Z,18.55
2024-03-30T07:57:00.238Z,18.34
2024-03-30T07:59:28.908Z,18.51
2024-03-30T08:01:58.107Z,18.61
2024-03-30T08:04:26.582Z,18.33
2024-03-30T08:06:56.709Z,18.53
2024-03-30T08:09:25.716Z,18.83
2024-03-30T08:11:55.726Z,19.18
2024-03-30T08:14:24.334Z,19.39
2024-03-30T08:16:52.784Z,19.47
2024-03-30T08:19:21.018Z,19.53
2024-03-30T08:21:52.408Z,19.55
2024-03-30T08:24:20.744Z,19.33
2024-03-30T08:26:49.317Z,18.71
2024-03-30T08:29:17.698Z,18.87
2024-03-30T08:31:46.067Z,19.07
2024-03-30T08:34:15.303Z,19.12
2024-03-30T08:36:44.839Z,19.22
2024-03-30T08:39:13.483Z,19.31
2024-03-30T08:41:43.818Z,19.36
2024-03-30T08:44:13.160Z,19.34
2024-03-30T08:46:42.152Z,19.29
2024-03-30T08:49:11.543Z,19.22
2024-03-30T08:51:40.329Z,19.42
2024-03-30T08:54:10.139Z,19.58
2024-03-30T08:56:38.916Z,19.68
2024-03-30T08:59:07.953Z,19.65
2024-03-30T09:01:36.213Z,19.77
2024-03-30T09:04:05.120Z,19.88
2024-03-30T09:06:34.046Z,19.84
2024-03-30T09:09:02.393Z,19.86
2024-03-30T09:11:31.355Z,19.99
2024-03-30T09:13:59.659Z,20.02
2024-03-30T09:16:28.422Z,20.02
2024-03-30T09:18:58.305Z,20.10
2024-03-30T09:21:26.741Z,20.24
2024-03-30T09:23:55.363Z,20.42
2024-03-30T09:26:23.811Z,20.55
2024-03-30T09:28:52.245Z,20.70
2024-03-30T09:31:20.937Z,20.86
2024-03-30T09:33:49.737Z,20.97
2024-03-30T09:36:19.815Z,21.09
2024-03-30T09:38:48.561Z,21.06
2024-03-30T09:41:19.780Z,21.17
2024-03-30T09:43:48.669Z,21.30
2024-03-30T09:46:17.450Z,21.44
2024-03-30T09:48:48.233Z,21.52
2024-03-30T09:51:18.225Z,21.63
2024-03-30T09:53:46.738Z,21.60
2024-03-30T09:56:17.374Z,21.70
2024-03-30T09:58:47.974Z,21.92
2024-03-30T10:01:17.082Z,22.13
2024-03-30T10:03:46.364Z,22.26
2024-03-30T10:06:23.680Z,22.34
2024-03-30T10:08:56.717Z,22.42
2024-03-30T10:11:28.750Z,22.55
2024-03-30T10:14:15.564Z,22.61
2024-03-30T10:16:47.192Z,22.74
2024-03-30T10:19:19.813Z,22.88
2024-03-30T10:21:50.881Z,23.02
2024-03-30T10:24:19.521Z,23.12
2024-03-30T10:26:49.319Z,23.11
2024-03-30T10:29:17.894Z,23.26
2024-03-30T10:31:46.905Z,23.49
2024-03-30T10:34:15.799Z,23.62
2024-03-30T10:36:44.833Z,23.71
2024-03-30T10:39:13.161Z,23.77
2024-03-30T10:41:45.374Z,23.77
2024-03-30T10:44:14.922Z,23.74
2024-03-30T10:46:44.435Z,23.85
2024-03-30T10:49:14.347Z,23.90
2024-03-30T10:51:44.051Z,23.87
2024-03-30T10:54:20.447Z,24.07
2024-03-30T10:56:53.255Z,24.27
2024-03-30T10:59:22.214Z,24.42
2024-03-30T11:01:52.501Z,24.50
2024-03-30T11:04:24.678Z,24.45
2024-03-30T11:06:53.871Z,24.58
2024-03-30T11:09:23.917Z,24.66
2024-03-30T11:11:52.952Z,24.69
2024-03-30T11:14:21.672Z,24.73
2024-03-30T11:16:54.713Z,24.77
2024-03-30T11:19:35.752Z,24.70
2024-03-30T11:22:18.024Z,24.57
2024-03-30T11:25:00.991Z,24.64
2024-03-30T11:27:34.687Z,24.82
2024-03-30T11:30:49.797Z,24.99
2024-03-30T11:33:28.592Z,25.11
2024-03-30T11:36:20.538Z,25.19
2024-03-30T11:38:59.525Z,25.21
2024-03-30T11:41:28.371Z,25.12
2024-03-30T11:44:11.228Z,25.15
2024-03-30T11:46:40.314Z,25.28
2024-03-30T11:49:09.981Z,25.41
2024-03-30T11:51:43.078Z,25.40
2024-03-30T11:54:29.472Z,25.40
2024-03-30T11:57:23.240Z,25.40
2024-03-30T11:59:55.432Z,25.42
2024-03-30T12:02:26.445Z,25.43
2024-03-30T12:04:54.931Z,25.18
2024-03-30T12:07:23.557Z,25.12
2024-03-30T12:09:53.121Z,25.20
2024-03-30T12:12:26.779Z,25.20
2024-03-30T12:14:57.659Z,25.20
2024-03-30T12:17:26.794Z,25.27
2024-03-30T12:19:59.098Z,25.31
2024-03-30T12:22:27.856Z,25.36
2024-03-30T12:24:57.578Z,25.42
2024-03-30T12:27:26.484Z,25.46
2024-03-30T12:29:56.956Z,25.51
2024-03-30T12:32:25.536Z,25.55
2024-03-30T12:34:56.112Z,25.52
2024-03-30T12:37:25.446Z,25.58
2024-03-30T12:39:54.828Z,25.67
2024-03-30T12:42:23.126Z,25.72
2024-03-30T12:44:58.646Z,25.74
2024-03-30T12:47:27.603Z,25.80
2024-03-30T12:49:56.904Z,25.87
2024-03-30T12:52:26.024Z,25.93
2024-03-30T12:54:54.651Z,25.98
2024-03-30T12:57:25.926Z,26.04
2024-03-30T12:59:58.081Z,26.01
2024-03-30T13:02:29.067Z,25.89
2024-03-30T13:05:09.626Z,25.72
2024-03-30T13:07:41.024Z,25.63
2024-03-30T13:10:11.836Z,25.64
2024-03-30T13:12:40.369Z,25.64
2024-03-30T13:15:09.007Z,25.60
2024-03-30T13:17:37.399Z,25.61
2024-03-30T13:20:09.777Z,25.57
2024-03-30T13:22:43.448Z,25.59
2024-03-30T13:25:14.069Z,25.66
2024-03-30T13:27:44.302Z,25.78
2024-03-30T13:30:16.041Z,25.86
2024-03-30T13:32:45.935Z,25.92
2024-03-30T13:35:15.115Z,26.01
2024-03-30T13:37:47.567Z,26.12
2024-03-30T13:40:16.922Z,26.22
2024-03-30T13:42:45.663Z,26.28
2024-03-30T13:45:15.892Z,26.35
2024-03-30T13:47:44.964Z,26.41
2024-03-30T13:50:13.583Z,26.43
2024-03-30T13:52:45.983Z,26.44
2024-03-30T13:55:14.790Z,26.34
2024-03-30T13:57:43.227Z,26.30
2024-03-30T14:00:13.276Z,26.38
2024-03-30T14:02:42.486Z,26.40
2024-03-30T14:05:10.966Z,26.43
2024-03-30T14:07:39.899Z,26.43
2024-03-30T14:10:08.931Z,26.45
2024-03-30T14:12:37.931Z,26.44
2024-03-30T14:15:06.931Z,26.44
2024-03-30T14:17:40.554Z,26.45
2024-03-30T14:20:09.572Z,26.44
2024-03-30T14:22:40.387Z,26.40
2024-03-30T14:25:08.955Z,26.42
2024-03-30T14:27:37.519Z,26.45
2024-03-30T14:30:07.769Z,26.47
2024-03-30T14:32:36.771Z,26.47
2024-03-30T14:35:06.040Z,26.50
2024-03-30T14:37:34.561Z,26.49
2024-03-30T14:40:06.313Z,26.47
2024-03-30T14:42:35.580Z,26.45
2024-03-30T14:45:04.975Z,26.44
2024-03-30T14:47:33.816Z,26.49
2024-03-30T14:50:02.937Z,26.51
2024-03-30T14:52:31.795Z,26.49
2024-03-30T14:55:00.640Z,26.45
2024-03-30T14:57:30.103Z,26.38
2024-03-30T14:59:58.787Z,26.32
2024-03-30T15:02:27.610Z,26.31
2024-03-30T15:04:57.405Z,26.32
2024-03-30T15:07:28.713Z,26.32
2024-03-30T15:09:59.721Z,26.34
2024-03-30T15:12:29.205Z,26.35
2024-03-30T15:14:58.412Z,26.35
2024-03-30T15:17:27.565Z,26.35
2024-03-30T15:19:57.354Z,26.35
2024-03-30T15:22:26.434Z,26.33
2024-03-30T15:24:55.964Z,26.28
2024-03-30T15:27:25.833Z,26.23
2024-03-30T15:30:13.698Z,26.19
2024-03-30T15:32:42.793Z,26.15
2024-03-30T15:35:12.001Z,26.04
2024-03-30T15:37:44.584Z,25.99
2024-03-30T15:40:13.732Z,25.90
2024-03-30T15:42:43.248Z,25.81
2024-03-30T15:45:12.765Z,25.72
2024-03-30T15:47:43.860Z,25.65
2024-03-30T15:50:12.323Z,25.58
2024-03-30T15:52:40.570Z,25.50
2024-03-30T15:55:09.497Z,25.39
2024-03-30T15:57:38.212Z,25.31
2024-03-30T16:00:08.145Z,25.20
2024-03-30T16:02:38.354Z,25.07
2024-03-30T16:05:07.741Z,24.97
2024-03-30T16:07:36.988Z,24.88
2024-03-30T16:10:06.552Z,24.78
2024-03-30T16:12:35.576Z,24.68
2024-03-30T16:15:08.077Z,24.56
2024-03-30T16:17:37.772Z,24.44
2024-03-30T16:20:07.025Z,24.32
2024-03-30T16:22:36.264Z,24.22
2024-03-30T16:25:05.357Z,24.12
2024-03-30T16:27:34.130Z,24.03
2024-03-30T16:30:06.407Z,23.90
2024-03-30T16:32:37.518Z,23.78
2024-03-30T16:35:07.696Z,23.67
2024-03-30T16:37:36.909Z,23.56
2024-03-30T16:40:05.975Z,23.46
2024-03-30T16:42:35.182Z,23.36
2024-03-30T16:45:03.969Z,23.25
2024-03-30T16:47:32.424Z,23.14
2024-03-30T16:50:01.248Z,23.02
2024-03-30T16:52:30.626Z,22.89
2024-03-30T16:54:59.017Z,22.79
2024-03-30T16:57:27.603Z,22.69
2024-03-30T16:59:55.999Z,22.62
2024-03-30T17:02:24.275Z,22.54
2024-03-30T17:04:53.024Z,22.44
2024-03-30T17:07:22.247Z,22.37
2024-03-30T17:09:51.101Z,22.28
2024-03-30T17:12:20.152Z,22.21
2024-03-30T17:14:49.138Z,22.14
2024-03-30T17:17:17.976Z,22.07
2024-03-30T17:19:50.862Z,21.98
2024-03-30T17:22:20.717Z,21.89
2024-03-30T17:24:49.563Z,21.82
2024-03-30T17:27:17.957Z,21.76
2024-03-30T17:29:46.758Z,21.70
2024-03-30T17:32:15.693Z,21.67
2024-03-30T17:34:53.550Z,21.63
2024-03-30T17:37:25.388Z,21.60
2024-03-30T17:39:53.640Z,21.55
2024-03-30T17:42:23.377Z,21.54
2024-03-30T17:44:52.071Z,21.52
2024-03-30T17:47:20.744Z,21.52
2024-03-30T17:49:51.734Z,21.51
2024-03-30T17:52:20.128Z,21.52
2024-03-30T17:54:49.274Z,21.50
2024-03-30T17:57:17.797Z,21.46
2024-03-30T17:59:46.636Z,21.44
2024-03-30T18:02:14.952Z,21.42
2024-03-30T18:04:43.508Z,21.38
2024-03-30T18:07:12.447Z,21.35
2024-03-30T18:09:41.339Z,21.32
2024-03-30T18:12:10.161Z,21.26
2024-03-30T18:14:38.914Z,21.18
2024-03-30T18:17:07.220Z,21.13
2024-03-30T18:19:40.174Z,21.10
2024-03-30T18:22:09.311Z,21.05
2024-03-30T18:24:38.222Z,21.01
2024-03-30T18:27:07.163Z,20.93
2024-03-30T18:29:37.173Z,20.88
2024-03-30T18:32:06.336Z,20.82
2024-03-30T18:34:34.951Z,20.76
2024-03-30T18:37:03.505Z,20.69
2024-03-30T18:39:31.948Z,20.67
2024-03-30T18:42:01.110Z,20.60
2024-03-30T18:44:29.281Z,20.50
2024-03-30T18:46:57.583Z,20.40
2024-03-30T18:49:26.214Z,20.26
2024-03-30T18:51:54.835Z,20.15
2024-03-30T18:54:23.173Z,20.03
2024-03-30T18:56:54.203Z,19.88
2024-03-30T18:59:25.900Z,19.75
2024-03-30T19:01:54.155Z,19.63
2024-03-30T19:04:22.778Z,19.51
2024-03-30T19:06:51.103Z,19.38
2024-03-30T19:09:19.638Z,19.25
2024-03-30T19:11:48.295Z,19.13
2024-03-30T19:14:17.161Z,19.02
2024-03-30T19:16:45.982Z,18.90
2024-03-30T19:19:16.983Z,18.80
2024-03-30T19:21:45.327Z,18.76
2024-03-30T19:24:13.785Z,18.72
2024-03-30T19:26:42.813Z,18.65
2024-03-30T19:29:13.593Z,18.58
2024-03-30T19:31:42.169Z,18.52
2024-03-30T19:34:14.034Z,18.47
2024-03-30T19:36:45.092Z,18.41
2024-03-30T19:39:14.024Z,18.38
2024-03-30T19:41:43.395Z,18.37
2024-03-30T19:44:11.698Z,18.36
2024-03-30T19:46:40.066Z,18.29
2024-03-30T19:49:08.442Z,18.22
2024-03-30T19:51:37.188Z,18.16
2024-03-30T19:54:05.531Z,18.13
2024-03-30T19:56:35.158Z,18.08
2024-03-30T19:59:04.569Z,17.98
2024-03-30T20:01:33.269Z,17.88
2024-03-30T20:04:02.102Z,17.79
2024-03-30T20:06:31.059Z,17.72
2024-03-30T20:08:59.309Z,17.63
2024-03-30T20:11:29.254Z,17.55
2024-03-30T20:13:57.505Z,17.46
2024-03-30T20:16:26.084Z,17.41
2024-03-30T20:18:56.822Z,17.35
2024-03-30T20:21:25.109Z,17.27
2024-03-30T20:23:53.910Z,17.20
2024-03-30T20:26:22.434Z,17.13
2024-03-30T20:28:50.502Z,17.06
2024-03-30T20:31:18.732Z,16.99
2024-03-30T20:33:47.155Z,16.92
2024-03-30T20:36:15.355Z,16.88
2024-03-30T20:38:43.339Z,16.83
2024-03-30T20:41:12.619Z,16.79
2024-03-30T20:43:42.394Z,16.84
2024-03-30T20:46:13.865Z,16.88
2024-03-30T20:48:46.339Z,16.86
2024-03-30T20:51:15.073Z,16.84
2024-03-30T20:53:43.232Z,16.77
2024-03-30T20:56:11.642Z,16.71
2024-03-30T20:58:40.729Z,16.64
2024-03-30T21:01:08.774Z,16.55
2024-03-30T21:03:36.981Z,16.47
2024-03-30T21:06:07.371Z,16.45
2024-03-30T21:08:36.171Z,16.43
2024-03-30T21:11:04.628Z,16.41
2024-03-30T21:13:34.129Z,16.41
2024-03-30T21:16:03.439Z,16.37
2024-03-30T21:18:32.187Z,16.31
2024-03-30T21:21:02.135Z,16.25
2024-03-30T21:23:33.597Z,16.19
2024-03-30T21:26:11.177Z,16.14
2024-03-30T21:28:46.390Z,16.08
2024-03-30T21:31:15.616Z,16.01
2024-03-30T21:33:44.120Z,15.98
2024-03-30T21:36:12.802Z,15.93
2024-03-30T21:38:41.460Z,15.91
2024-03-30T21:41:09.842Z,15.85
2024-03-30T21:43:38.106Z,15.79
2024-03-30T21:46:06.498Z,15.83
2024-03-30T21:48:34.694Z,15.78
2024-03-30T21:51:03.438Z,15.73
2024-03-30T21:53:32.067Z,15.66
2024-03-30T21:56:01.017Z,15.59
2024-03-30T21:58:29.512Z,15.49
2024-03-30T22:00:58.388Z,15.41
2024-03-30T22:03:26.606Z,15.33
2024-03-30T22:05:59.385Z,15.27
2024-03-30T22:08:28.152Z,15.21
2024-03-30T22:10:56.656Z,15.14
2024-03-30T22:13:25.165Z,15.06
2024-03-30T22:15:53.790Z,14.99
2024-03-30T22:18:22.220Z,14.92
2024-03-30T22:20:50.677Z,14.88
2024-03-30T22:23:19.807Z,14.82
2024-03-30T22:25:48.635Z,14.76
2024-03-30T22:28:17.510Z,14.68
2024-03-30T22:30:46.534Z,14.59
2024-03-30T22:33:15.055Z,14.47
2024-03-30T22:35:43.492Z,14.38
2024-03-30T22:38:12.249Z,14.30
2024-03-30T22:40:41.550Z,14.23
2024-03-30T22:43:10.421Z,14.14
2024-03-30T22:45:38.928Z,14.05
2024-03-30T22:48:07.424Z,13.98
2024-03-30T22:50:36.001Z,13.91
2024-03-30T22:53:04.804Z,13.83
2024-03-30T22:55:33.164Z,13.73
2024-03-30T22:58:01.772Z,13.67
2024-03-30T23:00:30.565Z,13.63
2024-03-30T23:02:58.980Z,13.57
2024-03-30T23:05:27.622Z,13.51
2024-03-30T23:07:56.510Z,13.45
2024-03-30T23:10:25.292Z,13.40
2024-03-30T23:12:54.269Z,13.35
2024-03-30T23:15:23.184Z,13.30
2024-03-30T23:17:53.499Z,13.27
2024-03-30T23:20:22.470Z,13.24
2024-03-30T23:22:50.946Z,13.22
2024-03-30T23:25:19.500Z,13.19
2024-03-30T23:27:51.160Z,13.17
2024-03-30T23:30:19.486Z,13.17
2024-03-30T23:32:50.375Z,13.18
2024-03-30T23:35:19.822Z,13.15
2024-03-30T23:37:48.487Z,13.09
2024-03-30T23:40:16.839Z,13.02
2024-03-30T23:42:46.890Z,12.98
2024-03-30T23:45:18.256Z,12.93
2024-03-30T23:47:48.877Z,12.88
2024-03-30T23:50:17.799Z,12.85
2024-03-30T23:52:53.021Z,12.79
2024-03-30T23:55:21.651Z,12.73
2024-03-30T23:57:50.184Z,12.71
